Terminal Aerodrome Forecast
Issued by NWS Denver/Boulder, CO

Home | Current Version | Previous Version | Text Only | Print | Product List | Glossary On
Versions: 1 2 3 4 5 6 7 8 9 10 11 12 13 14 15 16 17 18 19 20 21 22 23 24 25 26 27 28 29 30 31 32 33 34 35 36 37 38 39 40 41 42 43 44 45
000
FTUS45 KBOU 300912 AAA
TAFDEN
TAF AMD
KDEN 300912Z 3009/0112 30010KT P6SM SCT060 BKN150
     FM301100 31007KT P6SM FEW060 SCT150
     FM301500 34011KT P6SM FEW150
     FM301800 02012KT P6SM FEW080
     FM010300 20007KT P6SM SCT120 BKN200=

USA.gov is the U.S. government's official web portal to all federal, state and local government web resources and services.